createdAt,value
2024-04-18T00:01:16.403Z,16.21
2024-04-18T00:03:44.637Z,16.22
2024-04-18T00:06:12.125Z,16.16
2024-04-18T00:08:39.611Z,16.11
2024-04-18T00:11:25.436Z,16.12
2024-04-18T00:13:52.901Z,16.14
2024-04-18T00:16:35.508Z,16.14
2024-04-18T00:19:18.079Z,16.14
2024-04-18T00:21:58.653Z,16.16
2024-04-18T00:24:29.096Z,16.05
2024-04-18T00:26:56.771Z,15.93
2024-04-18T00:29:36.936Z,15.91
2024-04-18T00:32:16.559Z,15.86
2024-04-18T00:35:02.352Z,15.83
2024-04-18T00:37:35.653Z,15.80
2024-04-18T00:40:03.089Z,15.75
2024-04-18T00:42:37.346Z,15.76
2024-04-18T00:45:07.891Z,15.68
2024-04-18T00:47:48.490Z,15.61
2024-04-18T00:50:16.842Z,15.54
2024-04-18T00:52:44.228Z,15.52
2024-04-18T00:55:28.188Z,15.44
2024-04-18T00:58:11.436Z,15.38
2024-04-18T01:00:42.237Z,15.30
2024-04-18T01:03:28.358Z,15.23
2024-04-18T01:06:08.603Z,15.19
2024-04-18T01:08:55.083Z,15.13
2024-04-18T01:11:32.042Z,15.06
2024-04-18T01:14:11.998Z,15.01
2024-04-18T01:16:58.112Z,14.94
2024-04-18T01:19:25.498Z,14.90
2024-04-18T01:21:53.432Z,14.86
2024-04-18T01:24:20.947Z,14.81
2024-04-18T01:26:48.325Z,14.81
2024-04-18T01:29:15.739Z,14.81
2024-04-18T01:32:01.944Z,14.78
2024-04-18T01:34:29.394Z,14.74
2024-04-18T01:37:15.329Z,14.73
2024-04-18T01:39:44.610Z,14.73
2024-04-18T01:42:12.353Z,14.75
2024-04-18T01:44:43.434Z,14.74
2024-04-18T01:47:29.171Z,14.74
2024-04-18T01:50:09.245Z,14.74
2024-04-18T01:52:37.134Z,14.70
2024-04-18T01:55:05.305Z,14.67
2024-04-18T01:57:39.816Z,14.62
2024-04-18T02:00:25.440Z,14.55
2024-04-18T02:02:52.906Z,14.51
2024-04-18T02:05:38.918Z,14.50
2024-04-18T02:08:15.563Z,14.47
2024-04-18T02:10:45.600Z,14.43
2024-04-18T02:13:36.294Z,14.37
2024-04-18T02:16:04.433Z,14.33
2024-04-18T02:18:50.590Z,14.34
2024-04-18T02:21:17.999Z,14.34
2024-04-18T02:23:52.328Z,14.33
2024-04-18T02:26:20.591Z,14.32
2024-04-18T02:28:47.935Z,14.31
2024-04-18T02:31:18.164Z,14.32
2024-04-18T02:33:52.779Z,14.35
2024-04-18T02:36:20.857Z,14.39
2024-04-18T02:38:48.243Z,14.43
2024-04-18T02:41:15.601Z,14.46
2024-04-18T02:43:50.901Z,14.50
2024-04-18T02:46:18.432Z,14.53
2024-04-18T02:49:04.548Z,14.54
2024-04-18T02:51:32.151Z,14.55
2024-04-18T02:54:14.804Z,14.56
2024-04-18T02:56:42.328Z,14.52
2024-04-18T02:59:11.789Z,14.54
2024-04-18T03:01:51.495Z,14.53
2024-04-18T03:04:18.933Z,14.52
2024-04-18T03:06:46.741Z,14.50
2024-04-18T03:09:14.826Z,14.49
2024-04-18T03:11:54.554Z,14.50
2024-04-18T03:14:43.271Z,14.52
2024-04-18T03:17:10.753Z,14.60
2024-04-18T03:19:56.721Z,14.69
2024-04-18T03:22:27.179Z,14.78
2024-04-18T03:25:00.995Z,14.87
2024-04-18T03:27:31.657Z,14.95
2024-04-18T03:29:59.134Z,15.04
2024-04-18T03:32:36.557Z,15.12
2024-04-18T03:35:04.780Z,15.18
2024-04-18T03:37:32.912Z,15.26
2024-04-18T03:40:21.149Z,15.39
2024-04-18T03:43:03.885Z,15.46
2024-04-18T03:45:31.497Z,15.54
2024-04-18T03:48:17.518Z,15.64
2024-04-18T03:50:45.034Z,15.73
2024-04-18T03:53:21.877Z,15.84
2024-04-18T03:56:09.627Z,15.94
2024-04-18T03:58:37.063Z,16.03
2024-04-18T04:01:04.705Z,16.14
2024-04-18T04:03:32.352Z,16.21
2024-04-18T04:05:59.801Z,16.26
2024-04-18T04:08:27.213Z,16.30
2024-04-18T04:11:13.856Z,16.36
2024-04-18T04:13:41.304Z,16.40
2024-04-18T04:16:19.578Z,16.43
2024-04-18T04:18:51.531Z,16.46
2024-04-18T04:21:38.464Z,16.49
2024-04-18T04:24:06.393Z,16.53
2024-04-18T04:26:52.312Z,16.57
2024-04-18T04:29:20.791Z,16.60
2024-04-18T04:31:48.198Z,16.67
2024-04-18T04:34:15.650Z,16.72
2024-04-18T04:36:43.123Z,16.81
2024-04-18T04:39:10.970Z,16.90
2024-04-18T04:41:41.306Z,16.96
2024-04-18T04:44:08.694Z,17.05
2024-04-18T04:46:50.045Z,17.15
2024-04-18T04:49:18.724Z,17.23
2024-04-18T04:52:02.100Z,17.33
2024-04-18T04:54:45.237Z,17.42
2024-04-18T04:57:13.214Z,17.52
2024-04-18T04:59:40.931Z,17.63
2024-04-18T05:02:08.355Z,17.78
2024-04-18T05:04:51.241Z,17.97
2024-04-18T05:07:31.422Z,18.20
2024-04-18T05:09:58.929Z,18.52
2024-04-18T05:12:26.328Z,19.01
2024-04-18T05:14:53.736Z,19.56
2024-04-18T05:17:53.118Z,20.20
2024-04-18T05:20:20.557Z,20.55
2024-04-18T05:22:48.244Z,20.89
2024-04-18T05:25:15.721Z,21.30
2024-04-18T05:27:54.340Z,21.95
2024-04-18T05:30:58.941Z,23.14
2024-04-18T05:33:26.459Z,24.53
2024-04-18T05:35:53.927Z,25.81
2024-04-18T05:38:21.384Z,26.90
2024-04-18T05:40:49.635Z,27.85
2024-04-18T05:43:17.066Z,28.31
2024-04-18T05:45:48.154Z,28.58
2024-04-18T05:48:15.691Z,29.12
2024-04-18T05:50:43.220Z,29.50
2024-04-18T05:53:21.304Z,29.87
2024-04-18T05:55:54.619Z,29.99
2024-04-18T05:58:22.023Z,30.15
2024-04-18T06:00:55.540Z,30.46
2024-04-18T06:03:23.923Z,30.52
2024-04-18T06:05:53.330Z,30.43
2024-04-18T06:08:20.727Z,30.52
2024-04-18T06:10:48.245Z,30.75
2024-04-18T06:13:19.611Z,30.71
2024-04-18T06:15:48.504Z,30.33
2024-04-18T06:18:16.161Z,29.88
2024-04-18T06:20:47.067Z,29.41
2024-04-18T06:23:14.775Z,28.98
2024-04-18T06:25:42.556Z,28.76
2024-04-18T06:28:13.422Z,28.64
2024-04-18T06:30:41.180Z,28.51
2024-04-18T06:33:11.738Z,28.53
2024-04-18T06:35:39.399Z,28.54
2024-04-18T06:38:07.752Z,28.45
2024-04-18T06:40:35.306Z,28.32
2024-04-18T06:43:02.809Z,28.07
2024-04-18T06:45:30.482Z,27.79
2024-04-18T06:47:58.111Z,27.44
2024-04-18T06:50:27.588Z,27.31
2024-04-18T06:52:55.226Z,27.34
2024-04-18T06:55:26.062Z,27.43
2024-04-18T06:57:53.525Z,27.50
2024-04-18T07:00:21.091Z,27.42
2024-04-18T07:02:48.561Z,27.48
2024-04-18T07:05:34.789Z,27.61
2024-04-18T07:08:20.442Z,27.79
2024-04-18T07:10:47.981Z,27.97
2024-04-18T07:13:32.756Z,28.25
2024-04-18T07:16:03.621Z,28.65
2024-04-18T07:18:50.035Z,29.08
2024-04-18T07:21:17.678Z,29.52
2024-04-18T07:23:45.364Z,29.87
2024-04-18T07:26:13.200Z,30.08
2024-04-18T07:28:40.778Z,30.12
2024-04-18T07:31:08.333Z,30.03
2024-04-18T07:33:35.923Z,30.02
2024-04-18T07:36:16.512Z,30.18
2024-04-18T07:38:43.931Z,30.30
2024-04-18T07:41:11.378Z,30.32
2024-04-18T07:43:38.909Z,30.24
2024-04-18T07:46:06.639Z,30.05
2024-04-18T07:48:34.116Z,29.78
2024-04-18T07:51:01.603Z,29.61
2024-04-18T07:53:28.989Z,29.54
2024-04-18T07:55:56.484Z,29.61
2024-04-18T07:58:24.884Z,29.60
2024-04-18T08:00:54.988Z,29.51
2024-04-18T08:03:25.421Z,29.25
2024-04-18T08:05:56.339Z,29.01
2024-04-18T08:08:28.760Z,28.80
2024-04-18T08:13:32.776Z,28.37
2024-04-18T08:16:03.193Z,28.25
2024-04-18T08:18:31.831Z,28.15
2024-04-18T08:21:00.243Z,28.07
2024-04-18T08:23:28.019Z,27.93
2024-04-18T08:25:55.520Z,27.84
2024-04-18T08:28:23.061Z,27.83
2024-04-18T08:30:51.875Z,27.85
2024-04-18T08:33:19.482Z,27.85
2024-04-18T08:35:47.150Z,27.75
2024-04-18T08:38:14.927Z,27.69
2024-04-18T08:40:45.725Z,27.68
2024-04-18T08:43:13.594Z,27.69
2024-04-18T08:45:41.834Z,27.70
2024-04-18T08:48:09.473Z,27.72
2024-04-18T08:50:38.320Z,27.80
2024-04-18T08:53:05.989Z,27.92
2024-04-18T08:55:34.000Z,27.94
2024-04-18T08:58:08.247Z,28.01
2024-04-18T09:00:36.804Z,28.07
2024-04-18T09:03:04.637Z,28.27
2024-04-18T09:05:33.145Z,28.55
2024-04-18T09:08:01.153Z,28.86
2024-04-18T09:10:32.264Z,29.23
2024-04-18T09:13:04.077Z,29.69
2024-04-18T09:15:34.415Z,30.25
2024-04-18T09:18:02.824Z,30.74
2024-04-18T09:20:31.892Z,31.21
2024-04-18T09:22:59.430Z,31.65
2024-04-18T09:25:27.173Z,32.20
2024-04-18T09:27:54.734Z,32.55
2024-04-18T09:30:22.356Z,32.62
2024-04-18T09:32:49.994Z,32.54
2024-04-18T09:35:17.744Z,32.59
2024-04-18T09:37:52.742Z,32.61
2024-04-18T09:40:24.843Z,32.59
2024-04-18T09:42:55.151Z,32.61
2024-04-18T09:45:23.262Z,32.51
2024-04-18T09:47:50.873Z,32.44
2024-04-18T09:50:18.619Z,32.41
2024-04-18T09:52:46.370Z,32.23
2024-04-18T09:55:14.720Z,32.00
2024-04-18T09:57:43.875Z,31.81
2024-04-18T10:00:12.090Z,31.58
2024-04-18T10:02:39.792Z,31.14
2024-04-18T10:05:08.145Z,30.70
2024-04-18T10:07:35.738Z,30.54
2024-04-18T10:10:03.605Z,30.45
2024-04-18T10:12:35.497Z,30.28
2024-04-18T10:15:03.499Z,30.01
2024-04-18T10:17:31.796Z,29.74
2024-04-18T10:20:03.406Z,29.34
2024-04-18T10:22:45.211Z,28.96
2024-04-18T10:25:21.790Z,28.63
2024-04-18T10:27:49.532Z,28.52
2024-04-18T10:30:20.135Z,28.43
2024-04-18T10:32:49.445Z,28.33
2024-04-18T10:35:17.852Z,28.33
2024-04-18T10:37:52.034Z,28.29
2024-04-18T10:40:19.641Z,28.23
2024-04-18T10:42:47.312Z,28.18
2024-04-18T10:45:16.603Z,28.19
2024-04-18T10:47:45.112Z,28.22
2024-04-18T10:50:12.630Z,28.31
2024-04-18T10:52:40.173Z,28.42
2024-04-18T10:55:07.838Z,28.50
2024-04-18T10:57:35.390Z,28.47
2024-04-18T11:00:03.084Z,28.24
2024-04-18T11:02:33.802Z,27.99
2024-04-18T11:05:01.591Z,27.78
2024-04-18T11:07:49.115Z,27.52
2024-04-18T11:10:16.858Z,27.30
2024-04-18T11:12:44.420Z,27.14
2024-04-18T11:15:12.061Z,27.03
2024-04-18T11:17:39.653Z,26.92
2024-04-18T11:20:11.285Z,26.77
2024-04-18T11:22:39.257Z,26.57
2024-04-18T11:25:10.340Z,26.38
2024-04-18T11:27:37.962Z,26.26
2024-04-18T11:30:07.500Z,26.17
2024-04-18T11:32:35.160Z,26.02
2024-04-18T11:35:11.311Z,25.89
2024-04-18T11:37:43.196Z,25.81
2024-04-18T11:40:11.127Z,25.81
2024-04-18T11:42:38.713Z,25.87
2024-04-18T11:45:07.609Z,25.97
2024-04-18T11:47:35.461Z,26.09
2024-04-18T11:50:03.140Z,26.18
2024-04-18T11:52:30.733Z,26.25
2024-04-18T11:54:58.286Z,26.24
2024-04-18T11:57:38.101Z,26.21
2024-04-18T12:00:06.324Z,26.16
2024-04-18T12:02:54.209Z,26.11
2024-04-18T12:05:24.647Z,26.12
2024-04-18T12:07:55.978Z,26.17
2024-04-18T12:10:32.417Z,26.20
2024-04-18T12:13:05.686Z,26.19
2024-04-18T12:15:36.798Z,26.18
2024-04-18T12:18:05.313Z,26.24
2024-04-18T12:20:48.456Z,26.20
2024-04-18T12:23:35.501Z,26.18
2024-04-18T12:26:05.629Z,26.12
2024-04-18T12:28:45.211Z,26.04
2024-04-18T12:31:12.864Z,25.93
2024-04-18T12:33:49.769Z,25.86
2024-04-18T12:36:18.348Z,25.88
2024-04-18T12:38:46.026Z,25.84
2024-04-18T12:41:14.039Z,25.73
2024-04-18T12:43:41.713Z,25.67
2024-04-18T12:46:28.141Z,25.57
2024-04-18T12:48:57.482Z,25.46
2024-04-18T12:51:25.594Z,25.40
2024-04-18T12:53:54.786Z,25.34
2024-04-18T12:56:41.978Z,25.36
2024-04-18T12:59:27.607Z,25.38
2024-04-18T13:01:55.152Z,25.38
2024-04-18T13:04:23.065Z,25.39
2024-04-18T13:06:50.999Z,25.40
2024-04-18T13:09:34.099Z,25.45
2024-04-18T13:12:05.211Z,25.43
2024-04-18T13:14:51.725Z,25.45
2024-04-18T13:17:19.639Z,25.51
2024-04-18T13:19:47.427Z,25.72
2024-04-18T13:22:18.165Z,25.84
2024-04-18T13:24:46.128Z,25.96
2024-04-18T13:27:32.534Z,26.07
2024-04-18T13:30:00.584Z,26.18
2024-04-18T13:32:35.572Z,26.22
2024-04-18T13:35:03.388Z,26.17
2024-04-18T13:37:30.895Z,26.15
2024-04-18T13:40:17.031Z,26.09
2024-04-18T13:42:57.820Z,26.10
2024-04-18T13:45:31.883Z,26.05
2024-04-18T13:48:00.657Z,26.02
2024-04-18T13:50:48.042Z,26.04
2024-04-18T13:53:16.972Z,26.04
2024-04-18T13:55:50.010Z,26.06
2024-04-18T13:58:19.106Z,26.14
2024-04-18T14:00:59.650Z,26.24
2024-04-18T14:03:31.947Z,26.31
2024-04-18T14:06:09.352Z,26.33
2024-04-18T14:08:38.058Z,26.36
2024-04-18T14:11:27.517Z,26.38
2024-04-18T14:14:08.643Z,26.43
2024-04-18T14:16:55.827Z,26.50
2024-04-18T14:19:33.219Z,26.60
2024-04-18T14:22:07.545Z,26.69
2024-04-18T14:24:36.520Z,26.77
2024-04-18T14:27:04.297Z,26.82
2024-04-18T14:29:31.942Z,26.84
2024-04-18T14:32:02.946Z,26.87
2024-04-18T14:34:49.091Z,26.91
2024-04-18T14:37:19.798Z,26.93
2024-04-18T14:39:48.010Z,26.90
2024-04-18T14:42:15.798Z,26.83
2024-04-18T14:44:43.623Z,26.72
2024-04-18T14:47:17.323Z,26.62
2024-04-18T14:50:01.800Z,26.52
2024-04-18T14:52:35.275Z,26.42
2024-04-18T14:55:28.347Z,26.34
2024-04-18T14:58:15.853Z,26.29
2024-04-18T15:00:50.497Z,26.24
2024-04-18T15:03:18.804Z,26.21
2024-04-18T15:05:53.880Z,26.17
2024-04-18T15:08:41.027Z,26.11
2024-04-18T15:11:23.590Z,26.07
2024-04-18T15:14:06.760Z,26.03
2024-04-18T15:16:34.555Z,26.00
2024-04-18T15:19:02.342Z,26.00
2024-04-18T15:21:50.119Z,26.00
2024-04-18T15:24:18.067Z,25.99
2024-04-18T15:27:04.231Z,25.99
2024-04-18T15:29:32.341Z,25.96
2024-04-18T15:32:20.836Z,25.92
2024-04-18T15:34:48.637Z,25.87
2024-04-18T15:37:34.751Z,25.77
2024-04-18T15:40:02.422Z,25.72
2024-04-18T15:42:30.003Z,25.66
2024-04-18T15:45:00.737Z,25.61
2024-04-18T15:47:32.554Z,25.54
2024-04-18T15:50:18.331Z,25.46
2024-04-18T15:52:46.093Z,25.33
2024-04-18T15:55:30.287Z,25.24
2024-04-18T15:58:18.390Z,25.13
2024-04-18T16:00:45.994Z,25.09
2024-04-18T16:03:34.860Z,25.01
2024-04-18T16:06:22.713Z,24.91
2024-04-18T16:09:09.151Z,24.78
2024-04-18T16:11:40.418Z,24.67
2024-04-18T16:14:28.728Z,24.50
2024-04-18T16:16:56.508Z,24.36
2024-04-18T16:19:39.310Z,24.18
2024-04-18T16:22:06.978Z,24.00
2024-04-18T16:24:49.610Z,23.79
2024-04-18T16:27:17.426Z,23.62
2024-04-18T16:30:00.575Z,23.45
2024-04-18T16:32:45.270Z,23.29
2024-04-18T16:35:12.833Z,23.19
2024-04-18T16:37:41.841Z,23.09
2024-04-18T16:40:16.058Z,22.96
2024-04-18T16:42:59.822Z,22.79
2024-04-18T16:45:27.382Z,22.64
2024-04-18T16:47:55.101Z,22.47
2024-04-18T16:50:22.740Z,22.34
2024-04-18T16:52:50.899Z,22.20
2024-04-18T16:55:36.912Z,22.07
2024-04-18T16:58:17.075Z,21.98
2024-04-18T17:00:59.944Z,21.89
2024-04-18T17:03:27.840Z,21.79
2024-04-18T17:06:02.618Z,21.69
2024-04-18T17:08:30.522Z,21.54
2024-04-18T17:10:58.030Z,21.43
2024-04-18T17:13:44.141Z,21.32
2024-04-18T17:16:12.150Z,21.20
2024-04-18T17:18:49.184Z,21.09
2024-04-18T17:21:16.845Z,21.01
2024-04-18T17:23:44.512Z,20.92
2024-04-18T17:26:12.064Z,20.83
2024-04-18T17:28:39.838Z,20.73
2024-04-18T17:31:07.721Z,20.64
2024-04-18T17:33:35.629Z,20.51
2024-04-18T17:36:04.043Z,20.39
2024-04-18T17:38:47.354Z,20.26
2024-04-18T17:41:30.923Z,20.10
2024-04-18T17:44:27.660Z,19.95
2024-04-18T17:46:59.362Z,19.85
2024-04-18T17:49:27.245Z,19.78
2024-04-18T17:51:55.192Z,19.72
2024-04-18T17:54:22.955Z,19.65
2024-04-18T17:56:51.291Z,19.57
2024-04-18T17:59:20.185Z,19.50
2024-04-18T18:01:47.680Z,19.43
2024-04-18T18:04:15.453Z,19.35
2024-04-18T18:06:43.148Z,19.28
2024-04-18T18:09:10.825Z,19.19
2024-04-18T18:11:38.521Z,19.11
2024-04-18T18:14:06.187Z,19.03
2024-04-18T18:16:52.296Z,18.93
2024-04-18T18:19:20.006Z,18.85
2024-04-18T18:21:56.555Z,18.79
2024-04-18T18:24:24.190Z,18.73
2024-04-18T18:26:51.697Z,18.88
2024-04-18T18:29:19.354Z,18.62
2024-04-18T18:32:13.910Z,18.52
2024-04-18T18:34:48.657Z,18.45
2024-04-18T18:37:16.331Z,18.37
2024-04-18T18:39:44.010Z,18.29
2024-04-18T18:42:12.165Z,18.21
2024-04-18T18:44:40.188Z,18.16
2024-04-18T18:47:07.784Z,18.07
2024-04-18T18:49:50.486Z,17.96
2024-04-18T18:52:20.080Z,17.90
2024-04-18T18:54:47.854Z,17.83
2024-04-18T18:57:15.442Z,17.75
2024-04-18T18:59:43.941Z,17.70
2024-04-18T19:02:11.665Z,17.64
2024-04-18T19:04:57.972Z,17.56
2024-04-18T19:07:25.530Z,17.49
2024-04-18T19:09:53.563Z,17.42
2024-04-18T19:12:21.219Z,17.33
2024-04-18T19:14:48.942Z,17.25
2024-04-18T19:17:18.036Z,17.23
2024-04-18T19:19:46.459Z,17.16
2024-04-18T19:22:14.095Z,17.10
2024-04-18T19:24:41.763Z,17.08
2024-04-18T19:27:09.410Z,17.02
2024-04-18T19:29:44.839Z,16.96
2024-04-18T19:32:16.783Z,16.89
2024-04-18T19:34:44.528Z,16.84
2024-04-18T19:37:12.039Z,16.82
2024-04-18T19:39:40.005Z,16.77
2024-04-18T19:42:07.671Z,16.73
2024-04-18T19:44:35.459Z,16.71
2024-04-18T19:47:04.290Z,16.68
2024-04-18T19:49:37.740Z,16.62
2024-04-18T19:52:08.150Z,16.58
2024-04-18T19:54:36.515Z,16.56
2024-04-18T19:57:04.971Z,16.52
2024-04-18T19:59:32.665Z,16.51
2024-04-18T20:02:00.230Z,16.47
2024-04-18T20:04:27.928Z,16.43
2024-04-18T20:06:55.515Z,16.37
2024-04-18T20:09:23.068Z,16.31
2024-04-18T20:11:50.630Z,16.23
2024-04-18T20:14:21.054Z,16.17
2024-04-18T20:16:48.598Z,16.11
2024-04-18T20:19:16.775Z,16.06
2024-04-18T20:21:44.967Z,16.00
2024-04-18T20:24:14.271Z,15.93
2024-04-18T20:27:00.593Z,15.85
2024-04-18T20:29:46.520Z,15.77
2024-04-18T20:32:26.496Z,15.72
2024-04-18T20:34:54.288Z,15.68
2024-04-18T20:37:22.371Z,15.64
2024-04-18T20:39:50.357Z,15.62
2024-04-18T20:42:18.392Z,15.60
2024-04-18T20:45:01.980Z,15.56
2024-04-18T20:47:29.605Z,15.57
2024-04-18T20:49:57.242Z,15.57
2024-04-18T20:52:24.856Z,15.61
2024-04-18T20:54:52.428Z,15.61
2024-04-18T20:57:19.812Z,15.58
2024-04-18T20:59:47.466Z,15.50
2024-04-18T21:02:15.028Z,15.43
2024-04-18T21:04:42.637Z,15.35
2024-04-18T21:07:10.077Z,15.27
2024-04-18T21:09:37.675Z,15.21
2024-04-18T21:12:05.615Z,15.16
2024-04-18T21:14:33.030Z,15.10
2024-04-18T21:17:00.423Z,15.04
2024-04-18T21:19:28.279Z,14.99
2024-04-18T21:21:55.735Z,14.97
2024-04-18T21:24:23.146Z,14.95
2024-04-18T21:26:50.550Z,14.93
2024-04-18T21:29:18.059Z,14.90
2024-04-18T21:31:45.489Z,14.87
2024-04-18T21:34:12.959Z,14.84
2024-04-18T21:36:40.476Z,14.82
2024-04-18T21:39:08.047Z,14.82
2024-04-18T21:41:35.735Z,14.79
2024-04-18T21:44:03.193Z,14.72
2024-04-18T21:46:30.570Z,14.66
2024-04-18T21:48:58.169Z,14.64
2024-04-18T21:51:25.719Z,14.57
2024-04-18T21:53:53.317Z,14.51
2024-04-18T21:56:20.676Z,14.42
2024-04-18T21:58:51.620Z,14.34
2024-04-18T22:01:37.378Z,14.26
2024-04-18T22:04:05.114Z,14.22
2024-04-18T22:06:33.775Z,14.16
2024-04-18T22:09:01.209Z,14.10
2024-04-18T22:11:28.729Z,14.08
2024-04-18T22:13:56.933Z,14.04
2024-04-18T22:16:24.338Z,13.99
2024-04-18T22:18:52.211Z,13.94
2024-04-18T22:21:37.768Z,13.87
2024-04-18T22:24:05.919Z,13.80
2024-04-18T22:26:33.785Z,13.74
2024-04-18T22:29:01.327Z,13.69
2024-04-18T22:31:29.290Z,13.63
2024-04-18T22:33:56.784Z,13.61
2024-04-18T22:36:26.276Z,13.58
2024-04-18T22:38:53.774Z,13.53
2024-04-18T22:41:21.430Z,13.49
2024-04-18T22:43:48.822Z,13.42
2024-04-18T22:46:16.297Z,13.36
2024-04-18T22:48:43.760Z,13.35
2024-04-18T22:51:11.219Z,13.29
2024-04-18T22:53:38.704Z,13.25
2024-04-18T22:56:06.258Z,13.23
2024-04-18T22:58:33.665Z,13.18
2024-04-18T23:01:04.556Z,13.12
2024-04-18T23:03:32.202Z,13.05
2024-04-18T23:06:15.205Z,12.98
2024-04-18T23:08:43.284Z,12.94
2024-04-18T23:11:10.946Z,12.85
2024-04-18T23:13:38.468Z,12.79
2024-04-18T23:16:06.196Z,12.78
2024-04-18T23:18:33.929Z,12.81
2024-04-18T23:21:01.423Z,12.87
2024-04-18T23:23:34.876Z,12.97
2024-04-18T23:26:03.208Z,13.06
2024-04-18T23:28:30.644Z,13.23
2024-04-18T23:30:58.045Z,13.43
2024-04-18T23:33:25.631Z,13.53
2024-04-18T23:35:53.098Z,13.51
2024-04-18T23:38:20.722Z,13.56
2024-04-18T23:40:48.506Z,13.61
2024-04-18T23:43:15.911Z,13.67
2024-04-18T23:45:43.656Z,13.74
2024-04-18T23:48:12.972Z,13.77
2024-04-18T23:50:42.172Z,13.83
2024-04-18T23:53:09.538Z,13.85
2024-04-18T23:55:37.290Z,13.88
2024-04-18T23:58:04.903Z,13.88
